createdAt,value
2019-02-04T00:01:16.130Z,102114.52
2019-02-04T00:03:44.045Z,102104.67
2019-02-04T00:06:12.241Z,102119.30
2019-02-04T00:08:40.563Z,102112.19
2019-02-04T00:11:08.343Z,102117.55
2019-02-04T00:13:36.727Z,102121.53
2019-02-04T00:16:04.804Z,102117.55
2019-02-04T00:18:32.638Z,102118.48
2019-02-04T00:21:01.046Z,102109.55
2019-02-04T00:23:28.897Z,102113.05
2019-02-04T00:25:57.139Z,102114.04
2019-02-04T00:28:24.973Z,102110.88
2019-02-04T00:30:52.766Z,102109.05
2019-02-04T00:33:21.657Z,102113.91
2019-02-04T00:35:49.786Z,102115.77
2019-02-04T00:38:17.617Z,102118.39
2019-02-04T00:40:45.549Z,102123.77
2019-02-04T00:43:13.320Z,102124.63
2019-02-04T00:45:41.298Z,102124.63
2019-02-04T00:48:09.177Z,102126.86
2019-02-04T00:50:36.986Z,102133.55
2019-02-04T00:53:05.352Z,102135.74
2019-02-04T00:55:33.136Z,102142.73
2019-02-04T00:58:01.012Z,102140.61
2019-02-04T01:00:28.876Z,102145.91
2019-02-04T01:02:56.852Z,102144.61
2019-02-04T01:05:25.820Z,102147.12
2019-02-04T01:07:53.733Z,102154.34
2019-02-04T01:10:22.576Z,102157.45
2019-02-04T01:12:50.456Z,102151.26
2019-02-04T01:15:18.299Z,102158.26
2019-02-04T01:17:46.186Z,102160.93
2019-02-04T01:20:15.935Z,102155.07
2019-02-04T01:22:43.882Z,102159.13
2019-02-04T01:25:12.210Z,102158.38
2019-02-04T01:27:40.084Z,102160.14
2019-02-04T01:30:08.307Z,102162.48
2019-02-04T01:32:36.230Z,102165.15
2019-02-04T01:35:04.534Z,102164.69
2019-02-04T01:37:32.443Z,102168.27
2019-02-04T01:40:00.663Z,102160.66
2019-02-04T01:42:28.600Z,102167.31
2019-02-04T01:44:56.374Z,102166.48
2019-02-04T01:47:24.316Z,102167.31
2019-02-04T01:49:52.189Z,102174.83
2019-02-04T01:52:20.024Z,102169.48
2019-02-04T01:54:48.108Z,102182.81
2019-02-04T01:57:16.045Z,102171.67
2019-02-04T01:59:43.807Z,102176.19
2019-02-04T02:02:11.728Z,102181.12
2019-02-04T02:04:39.647Z,102179.25
2019-02-04T02:07:07.593Z,102191.34
2019-02-04T02:09:35.455Z,102190.45
2019-02-04T02:12:03.709Z,102195.30
2019-02-04T02:14:31.643Z,102199.30
2019-02-04T02:16:59.520Z,102202.01
2019-02-04T02:19:27.497Z,102207.23
2019-02-04T02:21:55.272Z,102207.25
2019-02-04T02:24:23.271Z,102211.66
2019-02-04T02:26:51.133Z,102215.91
2019-02-04T02:29:19.057Z,102218.28
2019-02-04T02:31:47.268Z,102215.14
2019-02-04T02:34:15.139Z,102215.64
2019-02-04T02:36:42.962Z,102210.89
2019-02-04T02:39:10.885Z,102212.09
2019-02-04T02:41:38.858Z,102213.93
2019-02-04T02:44:07.222Z,102216.67
2019-02-04T02:46:35.190Z,102219.17
2019-02-04T02:49:03.064Z,102214.80
2019-02-04T02:51:30.892Z,102215.48
2019-02-04T02:53:58.712Z,102216.04
2019-02-04T02:56:26.664Z,102209.86
2019-02-04T02:58:54.576Z,102193.66
2019-02-04T03:01:22.757Z,102214.70
2019-02-04T03:03:50.915Z,102210.67
2019-02-04T03:06:18.960Z,102214.23
2019-02-04T03:08:46.936Z,102213.90
2019-02-04T03:11:14.798Z,102212.87
2019-02-04T03:13:43.632Z,102211.17
2019-02-04T03:16:11.831Z,102212.77
2019-02-04T03:18:39.861Z,102214.83
2019-02-04T03:21:07.807Z,102213.50
2019-02-04T03:23:35.712Z,102219.70
2019-02-04T03:26:04.124Z,102212.98
2019-02-04T03:28:34.393Z,102217.86
2019-02-04T03:31:02.189Z,102197.23
2019-02-04T03:33:30.069Z,102219.80
2019-02-04T03:35:57.913Z,102218.91
2019-02-04T03:38:26.494Z,102217.97
2019-02-04T03:40:54.340Z,102222.41
2019-02-04T03:43:22.175Z,102219.08
2019-02-04T03:45:50.117Z,102224.84
2019-02-04T03:48:18.359Z,102225.23
2019-02-04T03:50:46.214Z,102217.66
2019-02-04T03:53:14.011Z,102214.56
2019-02-04T03:55:41.882Z,102211.90
2019-02-04T03:58:09.672Z,102217.23
2019-02-04T04:00:37.698Z,102217.70
2019-02-04T04:03:05.963Z,102221.28
2019-02-04T04:05:33.962Z,102229.75
2019-02-04T04:08:02.155Z,102225.23
2019-02-04T04:10:30.034Z,102224.41
2019-02-04T04:12:57.872Z,102230.22
2019-02-04T04:15:25.646Z,102218.22
2019-02-04T04:17:53.422Z,102228.06
2019-02-04T04:20:22.146Z,102235.09
2019-02-04T04:22:49.986Z,102238.66
2019-02-04T04:25:17.952Z,102229.75
2019-02-04T04:27:45.863Z,102233.33
2019-02-04T04:30:15.119Z,102230.22
2019-02-04T04:32:43.016Z,102231.27
2019-02-04T04:35:11.105Z,102230.41
2019-02-04T04:37:39.008Z,102231.74
2019-02-04T04:40:06.966Z,102228.57
2019-02-04T04:42:34.745Z,102228.61
2019-02-04T04:45:02.788Z,102233.91
2019-02-04T04:47:30.663Z,102224.60
2019-02-04T04:49:58.516Z,102219.27
2019-02-04T04:52:26.789Z,102213.57
2019-02-04T04:54:54.794Z,102215.34
2019-02-04T04:57:22.776Z,102209.53
2019-02-04T04:59:50.736Z,102213.78
2019-02-04T05:02:18.795Z,102211.26
2019-02-04T05:04:46.641Z,102205.06
2019-02-04T05:07:14.682Z,102211.77
2019-02-04T05:09:42.603Z,102210.90
2019-02-04T05:12:10.464Z,102214.44
2019-02-04T05:14:38.312Z,102217.06
2019-02-04T05:17:06.161Z,102219.30
2019-02-04T05:19:33.930Z,102213.06
2019-02-04T05:22:01.812Z,102218.47
2019-02-04T05:24:30.089Z,102218.98
2019-02-04T05:26:58.016Z,102219.41
2019-02-04T05:29:25.855Z,102216.16
2019-02-04T05:31:53.706Z,102213.57
2019-02-04T05:34:22.738Z,102214.44
2019-02-04T05:36:50.606Z,102215.84
2019-02-04T05:39:18.695Z,102217.61
2019-02-04T05:41:46.476Z,102217.70
2019-02-04T05:44:14.272Z,102212.41
2019-02-04T05:46:42.357Z,102211.37
2019-02-04T05:49:10.216Z,102208.30
2019-02-04T05:51:38.296Z,102205.23
2019-02-04T05:54:06.088Z,102202.09
2019-02-04T05:56:34.201Z,102187.31
2019-02-04T05:59:03.165Z,102198.89
2019-02-04T06:01:31.005Z,102201.12
2019-02-04T06:03:58.894Z,102202.50
2019-02-04T06:06:26.641Z,102206.46
2019-02-04T06:08:54.418Z,102204.73
2019-02-04T06:11:23.665Z,102206.03
2019-02-04T06:13:51.467Z,102203.80
2019-02-04T06:16:19.329Z,102202.86
2019-02-04T06:18:47.347Z,102201.56
2019-02-04T06:21:15.350Z,102203.83
2019-02-04T06:23:43.235Z,102197.62
2019-02-04T06:26:11.163Z,102197.72
2019-02-04T06:28:40.410Z,102192.38
2019-02-04T06:31:08.390Z,102184.38
2019-02-04T06:33:36.699Z,102190.15
2019-02-04T06:36:04.616Z,102193.69
2019-02-04T06:38:32.694Z,102190.61
2019-02-04T06:41:00.600Z,102190.18
2019-02-04T06:43:28.831Z,102196.88
2019-02-04T06:45:56.733Z,102197.72
2019-02-04T06:48:24.646Z,102198.55
2019-02-04T06:50:52.561Z,102194.62
2019-02-04T06:53:21.626Z,102189.81
2019-02-04T06:55:49.737Z,102186.23
2019-02-04T06:58:17.633Z,102191.95
2019-02-04T07:00:45.635Z,102188.47
2019-02-04T07:03:13.639Z,102187.14
2019-02-04T07:05:43.888Z,102195.18
2019-02-04T07:08:11.068Z,102192.51
2019-02-04T07:10:38.935Z,102185.34
2019-02-04T07:13:06.901Z,102161.22
2019-02-04T07:15:34.733Z,102182.73
2019-02-04T07:18:02.711Z,102178.26
2019-02-04T07:20:30.534Z,102181.83
2019-02-04T07:22:59.500Z,102180.09
2019-02-04T07:25:27.528Z,102182.27
2019-02-04T07:27:57.662Z,102181.86
2019-02-04T07:30:26.058Z,102179.68
2019-02-04T07:32:54.265Z,102172.05
2019-02-04T07:35:22.252Z,102172.05
2019-02-04T07:37:50.180Z,102172.52
2019-02-04T07:40:19.027Z,102174.75
2019-02-04T07:42:47.322Z,102172.51
2019-02-04T07:45:15.176Z,102177.01
2019-02-04T07:47:43.418Z,102184.56
2019-02-04T07:50:11.283Z,102178.34
2019-02-04T07:52:39.254Z,102174.31
2019-02-04T07:55:07.422Z,102179.71
2019-02-04T07:57:35.288Z,102176.11
2019-02-04T08:00:03.565Z,102175.64
2019-02-04T08:02:37.214Z,102174.25
2019-02-04T08:05:05.336Z,102178.38
2019-02-04T08:07:40.416Z,102179.27
2019-02-04T08:10:08.511Z,102005.28
2019-02-04T08:12:36.590Z,102184.62
2019-02-04T08:15:06.859Z,102138.52
2019-02-04T08:17:35.223Z,102175.23
2019-02-04T08:20:03.551Z,102172.98
2019-02-04T08:22:32.528Z,102173.47
2019-02-04T08:25:00.386Z,102165.48
2019-02-04T08:27:28.227Z,102161.91
2019-02-04T08:29:57.935Z,102164.12
2019-02-04T08:32:25.783Z,102164.55
2019-02-04T08:34:53.694Z,102165.92
2019-02-04T08:37:21.640Z,102157.88
2019-02-04T08:39:49.974Z,102155.64
2019-02-04T08:42:17.840Z,102160.14
2019-02-04T08:44:45.748Z,102163.70
2019-02-04T08:47:22.633Z,102169.95
2019-02-04T08:49:43.295Z,102166.33
2019-02-04T08:52:12.641Z,102169.91
2019-02-04T08:54:40.602Z,102162.81
2019-02-04T08:57:08.536Z,102168.53
2019-02-04T08:59:36.820Z,102166.36
2019-02-04T09:02:05.369Z,102166.80
2019-02-04T09:04:33.249Z,102169.95
2019-02-04T09:07:01.141Z,102168.16
2019-02-04T09:09:29.184Z,102173.98
2019-02-04T09:11:57.032Z,102172.27
2019-02-04T09:14:24.874Z,102171.78
2019-02-04T09:16:52.876Z,102171.83
2019-02-04T09:19:21.041Z,102173.17
2019-02-04T09:21:49.124Z,102174.52
2019-02-04T09:24:16.981Z,102178.05
2019-02-04T09:26:44.842Z,102175.86
2019-02-04T09:29:12.705Z,102173.22
2019-02-04T09:31:40.680Z,102175.40
2019-02-04T09:34:08.628Z,102171.88
2019-02-04T09:36:36.484Z,102174.97
2019-02-04T09:39:06.450Z,102163.43
2019-02-04T09:41:34.365Z,102183.48
2019-02-04T09:44:02.391Z,102172.37
2019-02-04T09:46:30.194Z,102179.48
2019-02-04T09:48:58.030Z,102177.27
2019-02-04T09:51:26.062Z,102172.85
2019-02-04T09:53:54.071Z,102174.50
2019-02-04T09:56:21.947Z,102168.84
2019-02-04T09:58:49.936Z,102171.48
2019-02-04T10:01:17.893Z,102177.69
2019-02-04T10:03:45.910Z,102164.42
2019-02-04T10:06:13.871Z,102168.41
2019-02-04T10:08:41.783Z,102169.80
2019-02-04T10:11:09.697Z,102170.66
2019-02-04T10:13:37.465Z,102171.54
2019-02-04T10:16:05.550Z,102148.31
2019-02-04T10:18:33.441Z,102177.47
2019-02-04T10:21:01.327Z,102176.09
2019-02-04T10:23:29.186Z,102174.73
2019-02-04T10:25:57.228Z,102178.78
2019-02-04T10:28:25.281Z,102175.70
2019-02-04T10:30:53.148Z,102164.94
2019-02-04T10:33:21.036Z,102163.62
2019-02-04T10:35:49.043Z,102165.01
2019-02-04T10:38:16.994Z,102156.89
2019-02-04T10:40:44.863Z,102158.73
2019-02-04T10:43:12.725Z,102164.56
2019-02-04T10:45:40.597Z,102166.30
2019-02-04T10:48:09.058Z,102159.55
2019-02-04T10:50:45.667Z,102158.27
2019-02-04T10:53:07.615Z,102157.37
2019-02-04T10:55:35.491Z,102151.97
2019-02-04T10:58:03.563Z,102149.74
2019-02-04T11:00:32.050Z,102147.12
2019-02-04T11:02:59.975Z,102144.05
2019-02-04T11:05:28.382Z,102144.56
2019-02-04T11:07:56.486Z,102141.95
2019-02-04T11:10:26.974Z,102144.53
2019-02-04T11:12:54.830Z,102109.28
2019-02-04T11:15:25.530Z,102143.72
2019-02-04T11:17:52.524Z,102135.67
2019-02-04T11:20:24.211Z,102135.14
2019-02-04T11:22:52.190Z,102124.97
2019-02-04T11:25:20.182Z,102124.05
2019-02-04T11:27:48.041Z,102118.76
2019-02-04T11:30:17.754Z,102117.78
2019-02-04T11:32:45.701Z,102122.31
2019-02-04T11:35:13.574Z,102119.18
2019-02-04T11:37:41.549Z,102108.05
2019-02-04T11:40:09.775Z,102112.53
2019-02-04T11:42:37.655Z,102102.30
2019-02-04T11:45:05.877Z,102100.94
2019-02-04T11:47:34.856Z,102100.90
2019-02-04T11:50:03.163Z,102106.73
2019-02-04T11:52:31.022Z,102103.58
2019-02-04T11:54:59.997Z,102098.26
2019-02-04T11:57:27.925Z,102106.73
2019-02-04T11:59:55.879Z,102104.02
2019-02-04T12:02:34.125Z,102100.05
2019-02-04T12:04:53.301Z,102097.82
2019-02-04T12:07:21.877Z,102099.61
2019-02-04T12:09:49.997Z,102072.83
2019-02-04T12:12:18.385Z,102090.71
2019-02-04T12:14:46.223Z,102089.34
2019-02-04T12:17:14.300Z,102088.32
2019-02-04T12:19:42.126Z,102094.25
2019-02-04T12:22:10.269Z,102085.33
2019-02-04T12:24:38.087Z,102086.67
2019-02-04T12:27:05.881Z,102092.39
2019-02-04T12:29:33.905Z,102078.56
2019-02-04T12:32:01.751Z,102076.35
2019-02-04T12:34:29.745Z,102071.96
2019-02-04T12:36:57.758Z,102083.07
2019-02-04T12:39:25.920Z,102064.27
2019-02-04T12:41:53.764Z,102083.02
2019-02-04T12:44:21.623Z,102090.19
2019-02-04T12:46:50.519Z,102087.48
2019-02-04T12:49:20.065Z,102084.75
2019-02-04T12:51:48.112Z,102090.13
2019-02-04T12:54:15.907Z,102090.58
2019-02-04T12:56:43.838Z,102081.23
2019-02-04T12:59:12.152Z,102086.08
2019-02-04T13:01:40.562Z,102087.39
2019-02-04T13:04:10.845Z,102082.09
2019-02-04T13:06:38.794Z,102084.31
2019-02-04T13:09:08.768Z,102079.41
2019-02-04T13:11:36.652Z,102075.86
2019-02-04T13:14:04.531Z,102084.83
2019-02-04T13:16:32.424Z,102075.41
2019-02-04T13:19:01.610Z,102073.20
2019-02-04T13:21:29.537Z,102070.08
2019-02-04T13:23:57.336Z,102063.84
2019-02-04T13:26:25.536Z,102070.94
2019-02-04T13:28:54.794Z,102066.10
2019-02-04T13:31:22.654Z,102064.73
2019-02-04T13:33:50.659Z,102059.85
2019-02-04T13:36:18.717Z,102061.17
2019-02-04T13:38:47.658Z,102062.42
2019-02-04T13:41:15.662Z,102043.77
2019-02-04T13:43:43.617Z,102053.12
2019-02-04T13:46:11.650Z,102051.30
2019-02-04T13:48:40.171Z,102059.75
2019-02-04T13:51:08.036Z,102053.99
2019-02-04T13:53:35.903Z,102045.09
2019-02-04T13:56:03.857Z,102049.11
2019-02-04T13:58:33.081Z,102061.16
2019-02-04T14:01:02.546Z,102053.53
2019-02-04T14:03:30.459Z,102054.86
2019-02-04T14:05:58.365Z,102056.59
2019-02-04T14:08:26.191Z,102053.39
2019-02-04T14:10:54.148Z,102052.61
2019-02-04T14:13:22.436Z,102054.70
2019-02-04T14:15:50.298Z,102052.52
2019-02-04T14:18:18.285Z,102037.89
2019-02-04T14:20:46.149Z,102044.94
2019-02-04T14:23:14.326Z,102033.78
2019-02-04T14:25:43.344Z,102030.69
2019-02-04T14:28:11.234Z,102027.92
2019-02-04T14:30:39.183Z,102022.10
2019-02-04T14:33:07.124Z,101994.51
2019-02-04T14:35:35.079Z,102003.83
2019-02-04T14:38:03.069Z,102006.49
2019-02-04T14:40:32.059Z,101989.98
2019-02-04T14:43:05.080Z,102001.12
2019-02-04T14:45:56.972Z,101990.95
2019-02-04T14:48:30.245Z,101937.91
2019-02-04T14:51:26.499Z,101986.02
2019-02-04T14:54:12.496Z,101973.60
2019-02-04T14:57:02.453Z,101970.84
2019-02-04T14:59:35.598Z,101977.06
2019-02-04T15:02:41.140Z,101972.70
2019-02-04T15:05:34.388Z,101969.94
2019-02-04T15:08:32.993Z,101971.69
2019-02-04T15:11:01.036Z,101973.44
2019-02-04T15:13:36.986Z,101974.77
2019-02-04T15:16:22.717Z,101973.92
2019-02-04T15:19:09.070Z,101967.64
2019-02-04T15:22:14.445Z,101956.64
2019-02-04T15:24:59.059Z,101962.34
2019-02-04T15:27:55.574Z,101965.45
2019-02-04T15:30:36.727Z,101948.95
2019-02-04T15:33:12.934Z,101951.97
2019-02-04T15:36:09.210Z,101951.09
2019-02-04T15:38:52.300Z,101961.41
2019-02-04T15:41:27.125Z,101949.13
2019-02-04T15:44:14.931Z,101953.30
2019-02-04T15:47:02.230Z,101955.41
2019-02-04T15:50:07.989Z,101946.08
2019-02-04T15:52:45.204Z,101936.70
2019-02-04T15:55:08.551Z,101938.91
2019-02-04T15:57:36.395Z,101947.80
2019-02-04T16:00:04.918Z,101959.91
2019-02-04T16:02:32.982Z,101956.27
2019-02-04T16:05:00.945Z,101962.94
2019-02-04T16:07:29.348Z,101954.52
2019-02-04T16:09:57.614Z,101956.34
2019-02-04T16:12:25.683Z,101955.11
2019-02-04T16:14:53.519Z,101960.41
2019-02-04T16:17:21.433Z,101963.50
2019-02-04T16:19:49.441Z,101958.00
2019-02-04T16:22:17.433Z,101961.16
2019-02-04T16:24:45.639Z,101961.61
2019-02-04T16:27:13.714Z,101953.13
2019-02-04T16:29:41.702Z,101941.52
2019-02-04T16:32:10.229Z,101939.82
2019-02-04T16:34:38.337Z,101926.36
2019-02-04T16:37:06.148Z,101930.41
2019-02-04T16:39:34.152Z,101923.69
2019-02-04T16:42:02.320Z,101936.08
2019-02-04T16:44:30.238Z,101942.74
2019-02-04T16:46:58.011Z,101952.95
2019-02-04T16:49:28.069Z,101949.91
2019-02-04T16:51:56.901Z,101955.26
2019-02-04T16:54:25.070Z,101946.80
2019-02-04T16:56:52.984Z,101952.10
2019-02-04T16:59:21.275Z,101954.80
2019-02-04T17:01:52.784Z,101948.27
2019-02-04T17:04:23.403Z,101952.70
2019-02-04T17:06:51.135Z,101950.84
2019-02-04T17:09:18.864Z,101951.75
2019-02-04T17:11:46.649Z,101944.65
2019-02-04T17:14:14.744Z,101947.31
2019-02-04T17:16:42.478Z,101938.87
2019-02-04T17:19:10.217Z,101934.30
2019-02-04T17:21:38.068Z,101915.77
2019-02-04T17:24:05.883Z,101912.05
2019-02-04T17:26:33.619Z,101936.51
2019-02-04T17:29:01.405Z,101932.51
2019-02-04T17:31:30.527Z,101933.44
2019-02-04T17:33:58.258Z,101929.87
2019-02-04T17:36:26.037Z,101923.50
2019-02-04T17:38:54.023Z,101929.30
2019-02-04T17:41:23.898Z,101923.97
2019-02-04T17:43:55.035Z,101919.03
2019-02-04T17:46:23.234Z,101917.73
2019-02-04T17:48:50.966Z,101920.80
2019-02-04T17:51:18.680Z,101919.13
2019-02-04T17:53:46.411Z,101905.29
2019-02-04T17:56:14.199Z,101905.45
2019-02-04T17:58:41.927Z,101916.34
2019-02-04T18:01:09.720Z,101905.82
2019-02-04T18:03:37.947Z,101903.66
2019-02-04T18:06:05.742Z,101907.51
2019-02-04T18:08:33.580Z,101906.66
2019-02-04T18:11:01.368Z,101904.31
2019-02-04T18:13:29.178Z,101907.05
2019-02-04T18:15:57.010Z,101916.98
2019-02-04T18:18:24.871Z,101902.36
2019-02-04T18:20:52.730Z,101902.93
2019-02-04T18:23:23.498Z,101880.33
2019-02-04T18:25:51.730Z,101885.66
2019-02-04T18:28:19.594Z,101897.45
2019-02-04T18:30:47.319Z,101887.25
2019-02-04T18:33:15.125Z,101876.30
2019-02-04T18:35:43.030Z,101865.23
2019-02-04T18:38:10.809Z,101859.36
2019-02-04T18:40:38.559Z,101851.56
2019-02-04T18:43:06.415Z,101852.17
2019-02-04T18:45:34.667Z,101845.77
2019-02-04T18:48:02.499Z,101838.73
2019-02-04T18:50:30.579Z,101857.72
2019-02-04T18:52:58.419Z,101843.25
2019-02-04T18:55:27.282Z,101848.90
2019-02-04T18:57:55.278Z,101855.49
2019-02-04T19:00:23.932Z,101840.78
2019-02-04T19:02:51.927Z,101847.41
2019-02-04T19:05:21.427Z,101838.70
2019-02-04T19:07:51.615Z,101836.31
2019-02-04T19:10:19.901Z,101850.53
2019-02-04T19:12:47.662Z,101838.48
2019-02-04T19:15:16.136Z,101853.73
2019-02-04T19:17:43.954Z,101850.90
2019-02-04T19:20:12.684Z,101855.89
2019-02-04T19:22:40.434Z,101848.40
2019-02-04T19:25:08.703Z,101855.83
2019-02-04T19:27:36.883Z,101852.98
2019-02-04T19:30:05.766Z,101851.50
2019-02-04T19:32:33.555Z,101863.71
2019-02-04T19:35:01.277Z,101861.55
2019-02-04T19:37:29.622Z,101861.52
2019-02-04T19:39:57.562Z,101856.69
2019-02-04T19:42:25.459Z,101858.45
2019-02-04T19:44:54.862Z,101866.52
2019-02-04T19:47:25.504Z,101867.27
2019-02-04T19:49:53.240Z,101830.25
2019-02-04T19:52:21.049Z,101864.75
2019-02-04T19:54:48.778Z,101862.52
2019-02-04T19:57:16.516Z,101869.17
2019-02-04T19:59:44.364Z,101865.51
2019-02-04T20:02:12.211Z,101863.78
2019-02-04T20:04:40.074Z,101861.15
2019-02-04T20:07:08.043Z,101858.98
2019-02-04T20:09:36.276Z,101826.30
2019-02-04T20:12:04.031Z,101862.37
2019-02-04T20:14:32.176Z,101855.49
2019-02-04T20:17:00.015Z,101859.02
2019-02-04T20:19:27.797Z,101860.36
2019-02-04T20:21:55.523Z,101857.72
2019-02-04T20:24:32.844Z,101839.23
2019-02-04T20:26:55.992Z,101856.48
2019-02-04T20:29:23.750Z,101856.39
2019-02-04T20:31:51.520Z,101865.28
2019-02-04T20:34:19.265Z,101857.26
2019-02-04T20:36:47.080Z,101860.42
2019-02-04T20:39:15.470Z,101861.34
2019-02-04T20:41:43.647Z,101841.34
2019-02-04T20:44:12.763Z,101861.75
2019-02-04T20:46:40.582Z,101869.64
2019-02-04T20:49:08.384Z,101858.25
2019-02-04T20:51:36.206Z,101855.24
2019-02-04T20:54:04.589Z,101860.78
2019-02-04T20:56:33.967Z,101859.45
2019-02-04T20:59:02.335Z,101857.99
2019-02-04T21:01:30.068Z,101855.48
2019-02-04T21:03:57.832Z,101854.22
2019-02-04T21:06:37.265Z,101855.89
2019-02-04T21:09:06.808Z,101864.28
2019-02-04T21:11:36.663Z,101862.48
2019-02-04T21:14:05.881Z,101859.42
2019-02-04T21:16:33.663Z,101853.33
2019-02-04T21:19:01.486Z,101861.62
2019-02-04T21:21:29.284Z,101857.63
2019-02-04T21:24:01.055Z,101848.23
2019-02-04T21:26:28.846Z,101859.42
2019-02-04T21:28:56.951Z,101852.80
2019-02-04T21:31:24.706Z,101858.95
2019-02-04T21:33:52.472Z,101856.63
2019-02-04T21:36:20.219Z,101857.52
2019-02-04T21:38:48.414Z,101857.38
2019-02-04T21:41:23.647Z,101885.23
2019-02-04T21:43:51.593Z,101872.59
2019-02-04T21:46:19.484Z,101867.70
2019-02-04T21:48:47.326Z,101836.19
2019-02-04T21:51:17.874Z,101862.45
2019-02-04T21:53:45.722Z,101872.17
2019-02-04T21:56:13.846Z,101869.67
2019-02-04T21:58:41.747Z,101870.58
2019-02-04T22:01:09.980Z,101870.94
2019-02-04T22:03:37.718Z,101862.05
2019-02-04T22:06:05.423Z,101873.14
2019-02-04T22:08:58.241Z,101857.66
2019-02-04T22:11:35.006Z,101862.95
2019-02-04T22:14:03.753Z,101857.59
2019-02-04T22:16:32.180Z,101857.13
2019-02-04T22:19:05.085Z,101856.26
2019-02-04T22:21:45.269Z,101846.20
2019-02-04T22:27:06.689Z,101849.53
2019-02-04T22:29:34.495Z,101846.00
2019-02-04T22:32:02.283Z,101843.37
2019-02-04T22:34:30.287Z,101847.73
2019-02-04T22:36:58.026Z,101846.14
2019-02-04T22:39:26.031Z,101808.09
2019-02-04T22:41:53.873Z,101837.98
2019-02-04T22:44:21.691Z,101846.37
2019-02-04T22:46:49.433Z,101841.51
2019-02-04T22:49:17.211Z,101851.00
2019-02-04T22:51:44.939Z,101856.33
2019-02-04T22:54:12.778Z,101849.33
2019-02-04T22:56:40.587Z,101851.90
2019-02-04T22:59:19.037Z,101848.37
2019-02-04T23:01:48.392Z,101850.39
2019-02-04T23:04:16.181Z,101854.53
2019-02-04T23:06:44.292Z,101852.23
2019-02-04T23:09:12.046Z,101846.97
2019-02-04T23:11:39.767Z,101854.13
2019-02-04T23:14:07.528Z,101845.67
2019-02-04T23:16:35.295Z,101856.80
2019-02-04T23:19:03.096Z,101863.52
2019-02-04T23:21:30.809Z,101859.35
2019-02-04T23:24:04.057Z,101861.12
2019-02-04T23:26:31.836Z,101866.88
2019-02-04T23:28:59.548Z,101859.89
2019-02-04T23:31:27.498Z,101862.02
2019-02-04T23:33:55.347Z,101863.98
2019-02-04T23:36:41.520Z,101782.98
2019-02-04T23:39:09.253Z,101867.31
2019-02-04T23:41:37.079Z,101863.38
2019-02-04T23:44:04.949Z,101871.47
2019-02-04T23:46:32.699Z,101867.45
2019-02-04T23:49:00.431Z,101860.78
2019-02-04T23:51:28.362Z,101864.81
2019-02-04T23:53:56.086Z,101860.32
2019-02-04T23:56:23.836Z,101846.47
2019-02-04T23:58:51.547Z,101852.02
